Corwith Cramer — WTF3319 — position and weather

sailwx.info

Track history (hours):
 
Tides and Currents Weather Stations Pressure Air Temp Water Temp Dewpoint Dewpoint Depression Visibility Wind Speed Wind Dir Waves Ship Positions

Oceanographic research ship Corwith Cramer (USA)

Ship's website: http://www.sea.edu/sea2000/AboutSEA2000/cramer.htm

Detailed information on ship capabilities available from University of Delaware's Ocean Information Center.

Owner: SEA EDUCATION ASSOCIATION, WOODS HOLE, MA. More information available from US FCC via Universal Licensing System and Coast Guard Vessel Documentation Center.

Last reported at 2018-Jun-18 11:10 UTC. Time now 2018-Jun-22 09:04 UTC.
Position N 41°44' W 070°38'.

Type: Sailing vessel. MMSI: 366724450.

Date/timePositionNaut miles runAvg speedWind from/ knotsBaromVisibWave heightAir tempDewpointWater temp
2018-Jun-18 11:10N 41°44' W 070°38'4 6.9
2018-Jun-18 10:36N 41°46' W 070°34'2 7.7
2018-Jun-18 10:23N 41°46' W 070°32'2 6.2
2018-Jun-18 10:00N 41°47' W 070°29'2 3.5
2018-Jun-18 09:30N 41°48' W 070°27'2 3.9
2018-Jun-18 09:00N 41°50' W 070°26'2 4.7
2018-Jun-18 08:30N 41°52' W 070°25'2 4.1
2018-Jun-18 08:00N 41°54' W 070°25'2 4.3
2018-Jun-18 07:30N 41°56' W 070°25'2 4.6
2018-Jun-18 07:00N 41°59' W 070°24'1 2.2
2018-Jun-18 06:30N 41°60' W 070°24'0 0.6
2018-Jun-18 06:00N 41°60' W 070°24'2 3.9
2018-Jun-18 05:30N 42°01' W 070°26'2 3.0
2018-Jun-18 05:00N 42°01' W 070°28'2 4.0
2018-Jun-18 04:30N 42°01' W 070°25'2 4.3
2018-Jun-18 04:00N 42°00' W 070°22'2 3.7
2018-Jun-18 03:30N 41°60' W 070°20'1 1.9
2018-Jun-18 03:00N 41°59' W 070°19'1 2.7
2018-Jun-18 02:30N 41°60' W 070°21'2 5.0
2018-Jun-18 02:00N 42°01' W 070°24'3 4.7
2018-Jun-18 01:22N 42°02' W 070°27'1 1.1
2018-Jun-18 00:50N 42°02' W 070°27'2 5.2
2018-Jun-18 00:30N 42°02' W 070°24'2 3.6
2018-Jun-18 00:00N 42°02' W 070°22'4 3.2
2018-Jun-17 22:38N 42°06' W 070°20'2 3.7
2018-Jun-17 22:06N 42°08' W 070°20'0 1.5
2018-Jun-17 22:00N 42°08' W 070°19'2 3.8
2018-Jun-17 21:30N 42°09' W 070°17'2 3.7
2018-Jun-17 21:00N 42°10' W 070°15'2 3.2
2018-Jun-17 20:30N 42°11' W 070°14'1 1.6
2018-Jun-17 20:00N 42°12' W 070°14'0 0.4
2018-Jun-17 19:30N 42°12' W 070°14'0 0.5
2018-Jun-17 19:00N 42°12' W 070°14'0 0.3
2018-Jun-17 18:30N 42°12' W 070°13'3 5.6
2018-Jun-17 18:00N 42°11' W 070°10'3 6.4
2018-Jun-17 17:30N 42°10' W 070°06'3 6.6
2018-Jun-17 17:00N 42°10' W 070°01'3 6.0
2018-Jun-17 16:30N 42°10' W 069°57'3 5.4
2018-Jun-17 16:00N 42°09' W 069°54'2 4.9
2018-Jun-17 15:30N 42°09' W 069°50'2 0.6
2018-Jun-17 12:43N 42°08' W 069°48'2 0.8
2018-Jun-17 10:39N 42°10' W 069°48'0 0.7
2018-Jun-17 10:30N 42°10' W 069°49'2 3.2
2018-Jun-17 10:00N 42°09' W 069°47'2 4.1
2018-Jun-17 09:30N 42°07' W 069°46'2 4.1
2018-Jun-17 09:00N 42°06' W 069°44'2 4.5
2018-Jun-17 08:30N 42°04' W 069°43'2 4.7
2018-Jun-17 08:00N 42°01' W 069°42'  
2018-Jun-11 11:10N 41°28' W 070°44'7 4.4
2018-Jun-11 09:37N 41°21' W 070°47'0 0.0
2018-Jun-11 09:19N 41°21' W 070°47'0 0.0
2018-Jun-11 08:58N 41°21' W 070°47'0 0.0
2018-Jun-11 08:22N 41°21' W 070°47'0 0.0
2018-Jun-11 07:46N 41°21' W 070°47'0 0.0
2018-Jun-11 07:28N 41°21' W 070°47'0 0.0
2018-Jun-11 06:58N 41°21' W 070°47'0 0.0
2018-Jun-11 06:22N 41°21' W 070°47'0 0.0
2018-Jun-11 05:52N 41°21' W 070°47'  
Track history (hours):
 
Tides and Currents Weather Stations Pressure Air Temp Water Temp Dewpoint Dewpoint Depression Visibility Wind Speed Wind Dir Waves Ship Positions

Oceanographic research ship Corwith Cramer (USA)

Ship's website: http://www.sea.edu/sea2000/AboutSEA2000/cramer.htm

Detailed information on ship capabilities available from University of Delaware's Ocean Information Center.

Owner: SEA EDUCATION ASSOCIATION, WOODS HOLE, MA. More information available from US FCC via Universal Licensing System and Coast Guard Vessel Documentation Center.

Last reported at 2018-Jun-18 11:10 UTC. Time now 2018-Jun-22 09:04 UTC.
Position N 41°44' W 070°38'.

Type: Sailing vessel. MMSI: 366724450.

Date/timePositionNaut miles runAvg speedWind from/ knotsBaromVisibWave heightAir tempDewpointWater temp
2018-Jun-18 11:10N 41°44' W 070°38'4 6.9
2018-Jun-18 10:36N 41°46' W 070°34'2 7.7
2018-Jun-18 10:23N 41°46' W 070°32'2 6.2
2018-Jun-18 10:00N 41°47' W 070°29'2 3.5
2018-Jun-18 09:30N 41°48' W 070°27'2 3.9
2018-Jun-18 09:00N 41°50' W 070°26'2 4.7
2018-Jun-18 08:30N 41°52' W 070°25'2 4.1
2018-Jun-18 08:00N 41°54' W 070°25'2 4.3
2018-Jun-18 07:30N 41°56' W 070°25'2 4.6
2018-Jun-18 07:00N 41°59' W 070°24'1 2.2
2018-Jun-18 06:30N 41°60' W 070°24'0 0.6
2018-Jun-18 06:00N 41°60' W 070°24'2 3.9
2018-Jun-18 05:30N 42°01' W 070°26'2 3.0
2018-Jun-18 05:00N 42°01' W 070°28'2 4.0
2018-Jun-18 04:30N 42°01' W 070°25'2 4.3
2018-Jun-18 04:00N 42°00' W 070°22'2 3.7
2018-Jun-18 03:30N 41°60' W 070°20'1 1.9
2018-Jun-18 03:00N 41°59' W 070°19'1 2.7
2018-Jun-18 02:30N 41°60' W 070°21'2 5.0
2018-Jun-18 02:00N 42°01' W 070°24'3 4.7
2018-Jun-18 01:22N 42°02' W 070°27'1 1.1
2018-Jun-18 00:50N 42°02' W 070°27'2 5.2
2018-Jun-18 00:30N 42°02' W 070°24'2 3.6
2018-Jun-18 00:00N 42°02' W 070°22'4 3.2
2018-Jun-17 22:38N 42°06' W 070°20'2 3.7
2018-Jun-17 22:06N 42°08' W 070°20'0 1.5
2018-Jun-17 22:00N 42°08' W 070°19'2 3.8
2018-Jun-17 21:30N 42°09' W 070°17'2 3.7
2018-Jun-17 21:00N 42°10' W 070°15'2 3.2
2018-Jun-17 20:30N 42°11' W 070°14'1 1.6
2018-Jun-17 20:00N 42°12' W 070°14'0 0.4
2018-Jun-17 19:30N 42°12' W 070°14'0 0.5
2018-Jun-17 19:00N 42°12' W 070°14'0 0.3
2018-Jun-17 18:30N 42°12' W 070°13'3 5.6
2018-Jun-17 18:00N 42°11' W 070°10'3 6.4
2018-Jun-17 17:30N 42°10' W 070°06'3 6.6
2018-Jun-17 17:00N 42°10' W 070°01'3 6.0
2018-Jun-17 16:30N 42°10' W 069°57'3 5.4
2018-Jun-17 16:00N 42°09' W 069°54'2 4.9
2018-Jun-17 15:30N 42°09' W 069°50'2 0.6
2018-Jun-17 12:43N 42°08' W 069°48'2 0.8
2018-Jun-17 10:39N 42°10' W 069°48'0 0.7
2018-Jun-17 10:30N 42°10' W 069°49'2 3.2
2018-Jun-17 10:00N 42°09' W 069°47'2 4.1
2018-Jun-17 09:30N 42°07' W 069°46'2 4.1
2018-Jun-17 09:00N 42°06' W 069°44'2 4.5
2018-Jun-17 08:30N 42°04' W 069°43'2 4.7
2018-Jun-17 08:00N 42°01' W 069°42'  
2018-Jun-11 11:10N 41°28' W 070°44'7 4.4
2018-Jun-11 09:37N 41°21' W 070°47'0 0.0
2018-Jun-11 09:19N 41°21' W 070°47'0 0.0
2018-Jun-11 08:58N 41°21' W 070°47'0 0.0
2018-Jun-11 08:22N 41°21' W 070°47'0 0.0
2018-Jun-11 07:46N 41°21' W 070°47'0 0.0
2018-Jun-11 07:28N 41°21' W 070°47'0 0.0
2018-Jun-11 06:58N 41°21' W 070°47'0 0.0
2018-Jun-11 06:22N 41°21' W 070°47'0 0.0
2018-Jun-11 05:52N 41°21' W 070°47'  

Dump ship's entire track history